createdAt,value
2017-06-20T00:01:17.925Z,9.83
2017-06-20T00:03:45.385Z,9.23
2017-06-20T00:06:12.842Z,8.87
2017-06-20T00:08:40.300Z,10.80
2017-06-20T00:11:07.756Z,8.97
2017-06-20T00:13:35.212Z,9.00
2017-06-20T00:16:02.687Z,8.90
2017-06-20T00:18:30.147Z,9.87
2017-06-20T00:20:57.604Z,9.73
2017-06-20T00:23:25.052Z,8.93
2017-06-20T00:25:52.496Z,10.00
2017-06-20T00:28:19.957Z,10.80
2017-06-20T00:30:47.420Z,10.40
2017-06-20T00:33:14.880Z,12.13
2017-06-20T00:35:42.328Z,9.50
2017-06-20T00:38:09.824Z,9.33
2017-06-20T00:40:37.273Z,9.23
2017-06-20T00:43:04.732Z,10.30
2017-06-20T00:45:32.196Z,9.10
2017-06-20T00:47:59.643Z,8.07
2017-06-20T00:50:27.094Z,9.83
2017-06-20T00:52:54.555Z,9.60
2017-06-20T00:55:22.017Z,8.70
2017-06-20T00:57:49.472Z,9.03
2017-06-20T01:00:16.930Z,8.20
2017-06-20T01:02:44.388Z,10.13
2017-06-20T01:05:11.849Z,10.80
2017-06-20T01:07:39.304Z,9.53
2017-06-20T01:10:06.760Z,10.97
2017-06-20T01:12:34.221Z,10.83
2017-06-20T01:15:01.680Z,13.10
2017-06-20T01:17:29.136Z,9.67
2017-06-20T01:19:56.592Z,8.80
2017-06-20T01:22:24.052Z,9.50
2017-06-20T01:24:51.512Z,10.23
2017-06-20T01:27:18.972Z,11.50
2017-06-20T01:29:46.428Z,9.10
2017-06-20T01:32:13.884Z,10.77
2017-06-20T01:34:41.355Z,9.60
2017-06-20T01:37:08.809Z,10.57
2017-06-20T01:39:36.272Z,10.73
2017-06-20T01:42:03.722Z,9.60
2017-06-20T01:44:31.176Z,8.83
2017-06-20T01:46:58.632Z,8.83
2017-06-20T01:49:26.076Z,8.57
2017-06-20T01:51:53.585Z,9.83
2017-06-20T01:54:21.039Z,11.03
2017-06-20T01:56:48.495Z,11.70
2017-06-20T01:59:15.956Z,11.07
2017-06-20T02:01:43.407Z,10.53
2017-06-20T02:04:10.864Z,10.17
2017-06-20T02:06:38.326Z,10.47
2017-06-20T02:09:05.776Z,8.70
2017-06-20T02:11:33.236Z,8.83
2017-06-20T02:14:00.688Z,8.47
2017-06-20T02:16:28.136Z,10.60
2017-06-20T02:18:55.596Z,8.97
2017-06-20T02:21:23.048Z,13.23
2017-06-20T02:23:50.502Z,9.93
2017-06-20T02:26:17.953Z,10.40
2017-06-20T02:28:45.416Z,11.93
2017-06-20T02:31:12.864Z,11.67
2017-06-20T02:33:40.328Z,13.10
2017-06-20T02:36:07.796Z,9.87
2017-06-20T02:38:35.247Z,11.10
2017-06-20T02:41:02.701Z,11.30
2017-06-20T02:43:30.167Z,12.07
2017-06-20T02:45:57.624Z,11.33
2017-06-20T02:48:25.100Z,11.80
2017-06-20T02:50:52.559Z,10.27
2017-06-20T02:53:20.018Z,12.60
2017-06-20T02:55:47.476Z,10.60
2017-06-20T02:58:14.939Z,11.83
2017-06-20T03:00:42.401Z,11.60
2017-06-20T03:03:09.860Z,13.80
2017-06-20T03:05:37.310Z,12.00
2017-06-20T03:08:04.768Z,10.50
2017-06-20T03:10:32.215Z,9.70
2017-06-20T03:12:59.672Z,10.00
2017-06-20T03:15:28.333Z,10.93
2017-06-20T03:17:55.796Z,10.43
2017-06-20T03:20:23.240Z,9.43
2017-06-20T03:22:50.709Z,12.07
2017-06-20T03:25:18.170Z,12.33
2017-06-20T03:27:45.636Z,12.70
2017-06-20T03:30:13.145Z,11.97
2017-06-20T03:32:41.359Z,12.73
2017-06-20T03:35:08.828Z,9.40
2017-06-20T03:37:36.317Z,11.30
2017-06-20T03:40:03.772Z,12.67
2017-06-20T03:42:31.228Z,11.77
2017-06-20T03:44:58.688Z,11.93
2017-06-20T03:47:26.223Z,14.03
2017-06-20T03:49:53.664Z,11.63
2017-06-20T03:52:21.120Z,11.10
2017-06-20T03:54:48.580Z,10.60
2017-06-20T03:57:16.040Z,9.30
2017-06-20T03:59:43.497Z,12.50
2017-06-20T04:02:10.963Z,10.77
2017-06-20T04:04:38.421Z,9.83
2017-06-20T04:07:05.878Z,11.20
2017-06-20T04:09:33.327Z,8.03
2017-06-20T04:12:00.800Z,11.30
2017-06-20T04:14:28.261Z,12.27
2017-06-20T04:16:55.724Z,12.10
2017-06-20T04:19:23.216Z,11.43
2017-06-20T04:21:50.663Z,11.97
2017-06-20T04:24:18.128Z,14.40
2017-06-20T04:26:45.580Z,10.80
2017-06-20T04:29:13.048Z,10.00
2017-06-20T04:31:40.518Z,9.13
2017-06-20T04:34:08.744Z,12.70
2017-06-20T04:36:36.260Z,15.13
2017-06-20T04:39:04.499Z,12.13
2017-06-20T04:41:31.953Z,13.03
2017-06-20T04:43:59.412Z,11.50
2017-06-20T04:46:26.873Z,11.97
2017-06-20T04:48:54.348Z,11.13
2017-06-20T04:51:21.809Z,11.97
2017-06-20T04:53:49.261Z,11.00
2017-06-20T04:56:16.715Z,9.73
2017-06-20T04:58:44.168Z,9.17
2017-06-20T05:01:11.617Z,7.83
2017-06-20T05:03:39.075Z,8.40
2017-06-20T05:06:06.523Z,8.93
2017-06-20T05:08:33.983Z,8.83
2017-06-20T05:11:01.440Z,8.03
2017-06-20T05:13:28.896Z,9.80
2017-06-20T05:15:56.353Z,7.83
2017-06-20T05:18:23.907Z,10.80
2017-06-20T05:20:51.361Z,9.63
2017-06-20T05:23:18.801Z,10.10
2017-06-20T05:25:46.256Z,9.97
2017-06-20T05:28:13.708Z,9.80
2017-06-20T05:30:41.164Z,7.77
2017-06-20T05:33:08.608Z,8.47
2017-06-20T05:35:36.841Z,9.90
2017-06-20T05:38:04.300Z,8.17
2017-06-20T05:40:31.753Z,9.73
2017-06-20T05:42:59.220Z,9.97
2017-06-20T05:45:26.675Z,9.23
2017-06-20T05:47:54.132Z,9.37
2017-06-20T05:50:21.576Z,9.67
2017-06-20T05:52:49.033Z,9.43
2017-06-20T05:55:16.491Z,11.33
2017-06-20T05:57:43.952Z,11.27
2017-06-20T06:00:11.416Z,11.40
2017-06-20T06:02:38.868Z,10.23
2017-06-20T06:05:06.324Z,8.70
2017-06-20T06:07:33.885Z,9.13
2017-06-20T06:10:01.344Z,10.63
2017-06-20T06:12:29.702Z,10.57
2017-06-20T06:14:57.156Z,9.50
2017-06-20T06:17:24.616Z,10.00
2017-06-20T06:19:52.075Z,10.13
2017-06-20T06:22:19.523Z,8.73
2017-06-20T06:24:47.012Z,9.10
2017-06-20T06:27:14.473Z,11.30
2017-06-20T06:29:41.931Z,10.23
2017-06-20T06:32:09.384Z,9.23
2017-06-20T06:34:36.844Z,9.83
2017-06-20T06:37:04.300Z,9.10
2017-06-20T06:39:31.744Z,9.17
2017-06-20T06:41:59.204Z,9.07
2017-06-20T06:44:26.656Z,8.77
2017-06-20T06:46:54.114Z,10.70
2017-06-20T06:49:21.573Z,9.53
2017-06-20T06:51:49.012Z,9.37
2017-06-20T06:54:17.235Z,10.13
2017-06-20T06:56:44.696Z,9.50
2017-06-20T06:59:12.148Z,10.53
2017-06-20T07:01:39.593Z,9.47
2017-06-20T07:04:07.049Z,10.17
2017-06-20T07:06:34.539Z,9.60
2017-06-20T07:09:01.984Z,10.83
2017-06-20T07:11:29.428Z,10.50
2017-06-20T07:13:56.889Z,10.97
2017-06-20T07:16:24.344Z,10.53
2017-06-20T07:18:51.792Z,10.97
2017-06-20T07:21:19.244Z,8.60
2017-06-20T07:23:46.689Z,10.83
2017-06-20T07:26:14.144Z,9.67
2017-06-20T07:28:42.373Z,10.47
2017-06-20T07:31:09.877Z,10.60
2017-06-20T07:33:38.085Z,9.57
2017-06-20T07:36:05.545Z,9.40
2017-06-20T07:38:33.009Z,10.47
2017-06-20T07:41:00.462Z,10.03
2017-06-20T07:43:27.920Z,11.90
2017-06-20T07:45:55.364Z,10.73
2017-06-20T07:48:22.834Z,9.60
2017-06-20T07:50:50.268Z,10.47
2017-06-20T07:53:17.724Z,10.73
2017-06-20T07:55:45.175Z,9.93
2017-06-20T07:58:13.397Z,11.07
2017-06-20T08:00:40.852Z,10.03
2017-06-20T08:03:08.301Z,8.57
2017-06-20T08:05:35.782Z,9.47
2017-06-20T08:08:03.229Z,9.27
2017-06-20T08:10:30.680Z,8.40
2017-06-20T08:12:58.133Z,8.43
2017-06-20T08:15:25.588Z,9.40
2017-06-20T08:17:53.045Z,9.37
2017-06-20T08:20:20.492Z,9.63
2017-06-20T08:22:47.936Z,9.23
2017-06-20T08:25:15.385Z,7.50
2017-06-20T08:27:43.600Z,8.80
2017-06-20T08:30:11.064Z,9.60
2017-06-20T08:32:38.513Z,9.40
2017-06-20T08:35:05.956Z,9.00
2017-06-20T08:37:33.408Z,9.77
2017-06-20T08:40:00.863Z,8.73
2017-06-20T08:42:29.709Z,8.53
2017-06-20T08:44:57.159Z,7.03
2017-06-20T08:47:24.612Z,7.37
2017-06-20T08:49:52.151Z,8.67
2017-06-20T08:52:19.571Z,7.50
2017-06-20T08:54:47.791Z,7.93
2017-06-20T08:57:15.245Z,8.00
2017-06-20T08:59:42.700Z,8.00
2017-06-20T09:02:10.156Z,15.50
2017-06-20T09:04:37.642Z,8.63
2017-06-20T09:07:05.096Z,9.57
2017-06-20T09:09:32.548Z,8.30
2017-06-20T09:12:00.000Z,7.83
2017-06-20T09:14:27.452Z,8.20
2017-06-20T09:16:54.911Z,10.00
2017-06-20T09:19:22.364Z,10.80
2017-06-20T09:21:49.820Z,8.20
2017-06-20T09:24:17.256Z,9.33
2017-06-20T09:26:44.700Z,9.73
2017-06-20T09:29:12.911Z,9.93
2017-06-20T09:31:40.356Z,9.43
2017-06-20T09:34:07.804Z,10.67
2017-06-20T09:36:35.260Z,9.93
2017-06-20T09:39:02.713Z,9.90
2017-06-20T09:41:30.155Z,10.43
2017-06-20T09:43:58.376Z,9.30
2017-06-20T09:46:25.820Z,8.67
2017-06-20T09:48:53.272Z,8.10
2017-06-20T09:51:20.721Z,7.63
2017-06-20T09:53:48.928Z,8.13
2017-06-20T09:56:16.397Z,8.90
2017-06-20T09:58:43.833Z,8.67
2017-06-20T10:01:11.300Z,8.93
2017-06-20T10:03:38.780Z,9.00
2017-06-20T10:06:06.228Z,9.60
2017-06-20T10:08:33.689Z,8.10
2017-06-20T10:11:01.141Z,7.13
2017-06-20T10:13:28.592Z,8.10
2017-06-20T10:15:56.056Z,6.83
2017-06-20T10:18:23.512Z,7.33
2017-06-20T10:20:50.962Z,6.70
2017-06-20T10:23:18.408Z,6.60
2017-06-20T10:25:45.883Z,6.73
2017-06-20T10:28:13.349Z,9.80
2017-06-20T10:30:40.793Z,6.77
2017-06-20T10:33:08.251Z,6.87
2017-06-20T10:35:35.705Z,8.40
2017-06-20T10:38:03.165Z,6.73
2017-06-20T10:40:30.612Z,6.80
2017-06-20T10:42:58.065Z,8.20
2017-06-20T10:45:25.512Z,6.60
2017-06-20T10:47:52.956Z,6.53
2017-06-20T10:50:21.169Z,7.37
2017-06-20T10:52:48.654Z,5.97
2017-06-20T10:55:16.105Z,7.13
2017-06-20T10:57:43.557Z,6.70
2017-06-20T11:00:11.009Z,6.13
2017-06-20T11:02:38.447Z,6.57
2017-06-20T11:05:05.900Z,6.73
2017-06-20T11:07:33.353Z,7.67
2017-06-20T11:10:00.813Z,8.10
2017-06-20T11:12:31.361Z,6.60
2017-06-20T11:14:58.812Z,7.80
2017-06-20T11:17:26.267Z,6.10
2017-06-20T11:19:53.717Z,6.40
2017-06-20T11:22:21.172Z,6.10
2017-06-20T11:24:48.613Z,5.30
2017-06-20T11:27:16.833Z,6.03
2017-06-20T11:29:44.285Z,6.17
2017-06-20T11:32:11.729Z,5.00
2017-06-20T11:34:39.176Z,4.83
2017-06-20T11:37:07.391Z,5.00
2017-06-20T11:39:34.852Z,5.40
2017-06-20T11:42:02.294Z,5.07
2017-06-20T11:44:29.745Z,5.27
2017-06-20T11:46:57.184Z,5.23
2017-06-20T11:49:24.636Z,5.27
2017-06-20T11:51:52.844Z,4.83
2017-06-20T11:54:20.305Z,5.43
2017-06-20T11:56:47.761Z,5.57
2017-06-20T11:59:15.217Z,4.70
2017-06-20T12:01:42.677Z,5.80
2017-06-20T12:04:10.120Z,5.47
2017-06-20T12:06:37.574Z,5.30
2017-06-20T12:09:05.024Z,6.00
2017-06-20T12:11:32.528Z,5.70
2017-06-20T12:13:59.982Z,5.50
2017-06-20T12:16:27.436Z,6.07
2017-06-20T12:18:54.888Z,5.83
2017-06-20T12:21:22.344Z,5.77
2017-06-20T12:23:49.800Z,6.10
2017-06-20T12:26:17.256Z,5.50
2017-06-20T12:28:44.709Z,5.80
2017-06-20T12:31:12.156Z,5.47
2017-06-20T12:33:39.609Z,5.07
2017-06-20T12:36:07.112Z,5.60
2017-06-20T12:38:34.567Z,5.73
2017-06-20T12:41:02.022Z,6.13
2017-06-20T12:43:29.472Z,5.23
2017-06-20T12:45:57.044Z,6.57
2017-06-20T12:48:24.513Z,6.57
2017-06-20T12:50:51.968Z,5.90
2017-06-20T12:53:19.420Z,6.07
2017-06-20T12:55:46.873Z,5.80
2017-06-20T12:58:14.330Z,6.07
2017-06-20T13:00:41.781Z,6.67
2017-06-20T13:03:09.237Z,6.20
2017-06-20T13:05:36.693Z,6.13
2017-06-20T13:08:04.177Z,5.90
2017-06-20T13:10:31.636Z,6.73
2017-06-20T13:12:59.094Z,6.30
2017-06-20T13:15:26.541Z,5.57
2017-06-20T13:17:53.988Z,5.83
2017-06-20T13:20:21.447Z,7.17
2017-06-20T13:22:48.891Z,7.50
2017-06-20T13:25:16.336Z,7.07
2017-06-20T13:27:43.787Z,6.70
2017-06-20T13:30:12.017Z,6.60
2017-06-20T13:32:39.468Z,6.17
2017-06-20T13:35:06.918Z,6.80
2017-06-20T13:37:34.368Z,7.70
2017-06-20T13:40:01.828Z,6.60
2017-06-20T13:42:32.239Z,7.83
2017-06-20T13:44:59.736Z,8.30
2017-06-20T13:47:27.196Z,12.03
2017-06-20T13:49:54.648Z,7.57
2017-06-20T13:52:22.101Z,8.03
2017-06-20T13:54:49.552Z,8.13
2017-06-20T13:57:16.997Z,8.80
2017-06-20T13:59:45.485Z,8.57
2017-06-20T14:02:12.929Z,7.93
2017-06-20T14:04:40.376Z,8.13
2017-06-20T14:07:07.821Z,8.20
2017-06-20T14:09:35.272Z,8.40
2017-06-20T14:12:03.493Z,7.87
2017-06-20T14:14:31.103Z,8.30
2017-06-20T14:16:59.324Z,8.80
2017-06-20T14:19:26.768Z,8.37
2017-06-20T14:21:54.221Z,8.50
2017-06-20T14:24:21.664Z,8.90
2017-06-20T14:26:49.121Z,10.03
2017-06-20T14:29:16.618Z,8.47
2017-06-20T14:31:44.075Z,8.60
2017-06-20T14:34:11.515Z,9.60
2017-06-20T14:36:39.752Z,9.03
2017-06-20T14:39:07.209Z,8.23
2017-06-20T14:41:34.652Z,8.30
2017-06-20T14:44:02.109Z,8.13
2017-06-20T14:46:29.567Z,7.40
2017-06-20T14:48:57.024Z,8.33
2017-06-20T14:51:24.476Z,8.37
2017-06-20T14:53:51.933Z,7.93
2017-06-20T14:56:19.384Z,9.50
2017-06-20T14:58:46.832Z,8.67
2017-06-20T15:01:14.341Z,9.13
2017-06-20T15:03:41.791Z,9.60
2017-06-20T15:06:09.243Z,9.23
2017-06-20T15:08:36.688Z,10.43
2017-06-20T15:11:04.149Z,11.00
2017-06-20T15:13:31.616Z,10.37
2017-06-20T15:15:59.072Z,10.60
2017-06-20T15:18:26.528Z,10.77
2017-06-20T15:20:53.980Z,10.40
2017-06-20T15:23:21.432Z,9.10
2017-06-20T15:25:48.891Z,9.80
2017-06-20T15:28:16.350Z,11.30
2017-06-20T15:30:43.791Z,10.10
2017-06-20T15:33:11.248Z,9.67
2017-06-20T15:35:38.702Z,9.60
2017-06-20T15:38:06.160Z,10.43
2017-06-20T15:40:33.608Z,10.33
2017-06-20T15:43:01.828Z,10.47
2017-06-20T15:45:29.287Z,11.20
2017-06-20T15:47:56.744Z,11.03
2017-06-20T15:50:24.200Z,12.33
2017-06-20T15:52:51.660Z,10.80
2017-06-20T15:55:19.116Z,10.87
2017-06-20T15:57:46.572Z,10.43
2017-06-20T16:00:14.036Z,11.30
2017-06-20T16:02:41.492Z,10.23
2017-06-20T16:05:08.940Z,11.17
2017-06-20T16:07:36.397Z,11.20
2017-06-20T16:10:03.883Z,11.13
2017-06-20T16:12:32.472Z,11.90
2017-06-20T16:14:59.932Z,10.23
2017-06-20T16:17:27.387Z,11.80
2017-06-20T16:19:54.848Z,11.77
2017-06-20T16:22:22.305Z,11.43
2017-06-20T16:24:49.760Z,10.60
2017-06-20T16:27:17.212Z,10.30
2017-06-20T16:29:44.663Z,10.20
2017-06-20T16:32:12.156Z,10.53
2017-06-20T16:34:40.380Z,11.03
2017-06-20T16:37:07.836Z,10.40
2017-06-20T16:39:35.291Z,9.97
2017-06-20T16:42:02.800Z,10.40
2017-06-20T16:44:30.249Z,10.30
2017-06-20T16:46:57.711Z,11.03
2017-06-20T16:49:25.221Z,10.43
2017-06-20T16:51:52.678Z,10.00
2017-06-20T16:54:20.116Z,9.70
2017-06-20T16:56:47.572Z,10.70
2017-06-20T16:59:15.058Z,9.40
2017-06-20T17:01:42.517Z,10.07
2017-06-20T17:04:09.968Z,10.23
2017-06-20T17:06:37.412Z,11.13
2017-06-20T17:09:04.872Z,10.93
2017-06-20T17:11:32.313Z,9.93
2017-06-20T17:14:00.532Z,11.30
2017-06-20T17:16:27.977Z,10.07
2017-06-20T17:18:55.434Z,10.87
2017-06-20T17:21:22.876Z,10.33
2017-06-20T17:23:51.904Z,10.70
2017-06-20T17:26:19.365Z,9.87
2017-06-20T17:28:46.821Z,9.77
2017-06-20T17:31:14.285Z,10.03
2017-06-20T17:33:41.740Z,9.83
2017-06-20T17:36:09.193Z,10.40
2017-06-20T17:38:36.641Z,10.57
2017-06-20T17:41:04.099Z,9.63
2017-06-20T17:43:31.550Z,10.97
2017-06-20T17:45:59.013Z,9.97
2017-06-20T17:48:26.496Z,10.50
2017-06-20T17:50:53.952Z,10.53
2017-06-20T17:53:21.416Z,10.17
2017-06-20T17:55:48.881Z,10.20
2017-06-20T17:58:16.340Z,10.90
2017-06-20T18:00:43.785Z,9.80
2017-06-20T18:03:11.238Z,9.27
2017-06-20T18:05:38.680Z,8.80
2017-06-20T18:08:06.136Z,9.23
2017-06-20T18:10:33.597Z,9.07
2017-06-20T18:13:01.084Z,9.13
2017-06-20T18:15:28.540Z,9.50
2017-06-20T18:17:55.980Z,9.20
2017-06-20T18:20:23.431Z,9.40
2017-06-20T18:22:50.892Z,10.03
2017-06-20T18:25:18.340Z,9.60
2017-06-20T18:27:45.796Z,9.20
2017-06-20T18:30:13.253Z,9.90
2017-06-20T18:32:40.719Z,8.43
2017-06-20T18:35:08.171Z,9.77
2017-06-20T18:37:35.628Z,10.23
2017-06-20T18:40:03.121Z,11.57
2017-06-20T18:42:31.905Z,11.43
2017-06-20T18:44:59.360Z,10.90
2017-06-20T18:47:26.839Z,10.77
2017-06-20T18:49:54.281Z,11.23
2017-06-20T18:52:21.736Z,11.30
2017-06-20T18:54:49.192Z,10.60
2017-06-20T18:57:16.641Z,11.30
2017-06-20T18:59:44.096Z,11.07
2017-06-20T19:02:11.564Z,11.67
2017-06-20T19:04:39.020Z,11.60
2017-06-20T19:07:06.473Z,12.93
2017-06-20T19:09:33.936Z,10.80
2017-06-20T19:12:01.398Z,10.97
2017-06-20T19:14:28.853Z,11.43
2017-06-20T19:16:56.309Z,12.63
2017-06-20T19:19:23.769Z,11.67
2017-06-20T19:21:51.224Z,11.87
2017-06-20T19:24:18.676Z,12.53
2017-06-20T19:26:46.131Z,13.00
2017-06-20T19:29:13.592Z,12.67
2017-06-20T19:31:41.064Z,14.10
2017-06-20T19:34:08.507Z,11.83
2017-06-20T19:36:35.972Z,11.63
2017-06-20T19:39:03.420Z,12.07
2017-06-20T19:41:30.872Z,12.10
2017-06-20T19:43:58.330Z,12.60
2017-06-20T19:46:25.806Z,12.67
2017-06-20T19:48:53.255Z,12.50
2017-06-20T19:51:20.712Z,10.77
2017-06-20T19:53:48.173Z,11.47
2017-06-20T19:56:15.620Z,12.17
2017-06-20T19:58:43.076Z,11.83
2017-06-20T20:01:10.559Z,12.27
2017-06-20T20:03:38.015Z,13.27
2017-06-20T20:06:05.478Z,13.07
2017-06-20T20:08:32.919Z,12.60
2017-06-20T20:11:00.390Z,10.77
2017-06-20T20:13:27.852Z,11.60
2017-06-20T20:15:55.384Z,13.30
2017-06-20T20:18:22.816Z,11.63
2017-06-20T20:20:50.265Z,13.00
2017-06-20T20:23:18.490Z,11.87
2017-06-20T20:25:45.949Z,11.27
2017-06-20T20:28:13.401Z,11.50
2017-06-20T20:30:40.848Z,11.57
2017-06-20T20:33:08.307Z,11.00
2017-06-20T20:35:35.765Z,12.40
2017-06-20T20:38:03.221Z,12.20
2017-06-20T20:40:30.684Z,11.23
2017-06-20T20:42:58.142Z,13.20
2017-06-20T20:45:25.600Z,12.37
2017-06-20T20:47:53.056Z,11.80
2017-06-20T20:50:20.504Z,11.30
2017-06-20T20:52:47.995Z,10.53
2017-06-20T20:55:15.426Z,12.37
2017-06-20T20:57:42.888Z,11.20
2017-06-20T21:00:10.341Z,12.03
2017-06-20T21:02:37.812Z,11.53
2017-06-20T21:05:05.290Z,11.77
2017-06-20T21:07:32.740Z,11.67
2017-06-20T21:10:00.197Z,10.57
2017-06-20T21:12:27.652Z,11.20
2017-06-20T21:14:55.099Z,10.40
2017-06-20T21:17:22.548Z,11.60
2017-06-20T21:19:50.008Z,11.73
2017-06-20T21:22:17.463Z,11.03
2017-06-20T21:24:44.915Z,11.83
2017-06-20T21:27:12.380Z,11.23
2017-06-20T21:29:39.841Z,10.80
2017-06-20T21:32:07.300Z,10.17
2017-06-20T21:34:34.756Z,10.63
2017-06-20T21:37:02.228Z,10.30
2017-06-20T21:39:29.689Z,11.37
2017-06-20T21:41:57.139Z,11.33
2017-06-20T21:44:25.267Z,10.60
2017-06-20T21:46:53.492Z,16.60
2017-06-20T21:49:20.948Z,11.10
2017-06-20T21:51:48.395Z,12.43
2017-06-20T21:54:15.861Z,11.43
2017-06-20T21:56:43.316Z,10.90
2017-06-20T21:59:10.773Z,10.63
2017-06-20T22:01:38.256Z,9.13
2017-06-20T22:04:05.700Z,10.43
2017-06-20T22:06:33.151Z,9.67
2017-06-20T22:09:00.601Z,9.83
2017-06-20T22:11:28.159Z,9.80
2017-06-20T22:13:55.601Z,8.60
2017-06-20T22:16:23.052Z,9.27
2017-06-20T22:18:50.500Z,8.20
2017-06-20T22:21:18.716Z,8.43
2017-06-20T22:23:46.172Z,11.00
2017-06-20T22:26:13.658Z,9.00
2017-06-20T22:28:41.092Z,14.03
2017-06-20T22:31:08.544Z,9.33
2017-06-20T22:33:35.987Z,8.73
2017-06-20T22:36:03.459Z,10.17
2017-06-20T22:38:30.911Z,10.17
2017-06-20T22:40:58.360Z,9.60
2017-06-20T22:43:25.812Z,9.90
2017-06-20T22:45:53.268Z,9.63
2017-06-20T22:48:20.713Z,10.37
2017-06-20T22:50:48.932Z,11.70
2017-06-20T22:53:16.393Z,10.80
2017-06-20T22:55:43.849Z,10.07
2017-06-20T22:58:11.306Z,10.17
2017-06-20T23:00:38.745Z,10.80
2017-06-20T23:03:06.204Z,11.00
2017-06-20T23:05:33.666Z,13.33
2017-06-20T23:08:01.127Z,9.87
2017-06-20T23:10:28.586Z,9.47
2017-06-20T23:12:56.047Z,13.43
2017-06-20T23:15:23.505Z,11.20
2017-06-20T23:17:51.062Z,11.60
2017-06-20T23:20:18.508Z,12.00
2017-06-20T23:22:45.948Z,11.67
2017-06-20T23:25:13.399Z,9.83
2017-06-20T23:27:42.066Z,9.90
2017-06-20T23:30:09.516Z,9.47
2017-06-20T23:32:36.952Z,9.93
2017-06-20T23:35:04.408Z,9.23
2017-06-20T23:37:31.864Z,9.30
2017-06-20T23:39:59.309Z,10.30
2017-06-20T23:42:26.766Z,10.53
2017-06-20T23:44:54.211Z,10.50
2017-06-20T23:47:21.645Z,9.63
2017-06-20T23:49:49.864Z,10.13
2017-06-20T23:52:17.416Z,9.63
2017-06-20T23:54:44.852Z,8.67
2017-06-20T23:57:12.304Z,8.37
2017-06-20T23:59:39.752Z,9.53
